sensor_id;sensor_type;location;lat;lon;timestamp;P1;durP1;ratioP1;P2;durP2;ratioP2
45236;SDS011;30973;51.442;3.580;2022-11-15T00:01:32;40.13;;;24.17;;
45236;SDS011;30973;51.442;3.580;2022-11-15T00:04:18;38.72;;;24.45;;
45236;SDS011;30973;51.442;3.580;2022-11-15T00:07:04;32.25;;;23.17;;
45236;SDS011;30973;51.442;3.580;2022-11-15T00:09:50;33.58;;;21.60;;
45236;SDS011;30973;51.442;3.580;2022-11-15T00:12:37;41.67;;;24.27;;
45236;SDS011;30973;51.442;3.580;2022-11-15T00:15:22;39.45;;;23.63;;
45236;SDS011;30973;51.442;3.580;2022-11-15T00:18:12;38.70;;;22.83;;
45236;SDS011;30973;51.442;3.580;2022-11-15T00:21:05;34.25;;;22.90;;
45236;SDS011;30973;51.442;3.580;2022-11-15T00:23:51;38.90;;;23.52;;
45236;SDS011;30973;51.442;3.580;2022-11-15T00:26:37;34.70;;;24.58;;
45236;SDS011;30973;51.442;3.580;2022-11-15T00:29:23;35.55;;;22.17;;
45236;SDS011;30973;51.442;3.580;2022-11-15T00:32:09;31.88;;;22.17;;
45236;SDS011;30973;51.442;3.580;2022-11-15T00:34:55;34.58;;;23.17;;
45236;SDS011;30973;51.442;3.580;2022-11-15T00:37:41;32.15;;;21.67;;
45236;SDS011;30973;51.442;3.580;2022-11-15T00:40:27;31.40;;;20.85;;
45236;SDS011;30973;51.442;3.580;2022-11-15T00:43:13;29.83;;;19.85;;
45236;SDS011;30973;51.442;3.580;2022-11-15T00:45:59;35.45;;;21.50;;
45236;SDS011;30973;51.442;3.580;2022-11-15T00:48:47;35.72;;;21.52;;
45236;SDS011;30973;51.442;3.580;2022-11-15T00:51:32;31.83;;;20.75;;
45236;SDS011;30973;51.442;3.580;2022-11-15T00:54:19;31.45;;;20.63;;
45236;SDS011;30973;51.442;3.580;2022-11-15T00:57:05;27.45;;;21.05;;
45236;SDS011;30973;51.442;3.580;2022-11-15T00:59:51;30.10;;;21.30;;
45236;SDS011;30973;51.442;3.580;2022-11-15T01:02:37;32.38;;;21.23;;
45236;SDS011;30973;51.442;3.580;2022-11-15T01:05:22;28.83;;;21.48;;
45236;SDS011;30973;51.442;3.580;2022-11-15T01:08:12;28.35;;;21.40;;
45236;SDS011;30973;51.442;3.580;2022-11-15T01:11:05;27.23;;;19.63;;
45236;SDS011;30973;51.442;3.580;2022-11-15T01:13:51;27.27;;;19.95;;
45236;SDS011;30973;51.442;3.580;2022-11-15T01:16:37;28.33;;;18.90;;
45236;SDS011;30973;51.442;3.580;2022-11-15T01:19:23;25.75;;;19.85;;
45236;SDS011;30973;51.442;3.580;2022-11-15T01:22:08;25.83;;;18.80;;
45236;SDS011;30973;51.442;3.580;2022-11-15T01:24:54;27.92;;;18.23;;
45236;SDS011;30973;51.442;3.580;2022-11-15T01:27:40;28.58;;;18.45;;
45236;SDS011;30973;51.442;3.580;2022-11-15T01:30:26;26.80;;;18.30;;
45236;SDS011;30973;51.442;3.580;2022-11-15T01:33:12;23.23;;;16.80;;
45236;SDS011;30973;51.442;3.580;2022-11-15T01:35:58;29.55;;;17.70;;
45236;SDS011;30973;51.442;3.580;2022-11-15T01:38:44;29.25;;;16.95;;
45236;SDS011;30973;51.442;3.580;2022-11-15T01:41:32;23.98;;;16.42;;
45236;SDS011;30973;51.442;3.580;2022-11-15T01:47:26;25.45;;;16.85;;
45236;SDS011;30973;51.442;3.580;2022-11-15T01:50:14;24.55;;;15.57;;
45236;SDS011;30973;51.442;3.580;2022-11-15T01:53:01;20.17;;;13.85;;
45236;SDS011;30973;51.442;3.580;2022-11-15T01:55:47;22.58;;;14.30;;
45236;SDS011;30973;51.442;3.580;2022-11-15T01:58:33;19.67;;;13.43;;
45236;SDS011;30973;51.442;3.580;2022-11-15T02:01:20;23.10;;;13.98;;
45236;SDS011;30973;51.442;3.580;2022-11-15T02:04:11;19.25;;;12.20;;
45236;SDS011;30973;51.442;3.580;2022-11-15T02:06:58;19.58;;;11.95;;
45236;SDS011;30973;51.442;3.580;2022-11-15T02:09:46;18.73;;;11.88;;
45236;SDS011;30973;51.442;3.580;2022-11-15T02:12:31;20.88;;;11.80;;
45236;SDS011;30973;51.442;3.580;2022-11-15T02:15:18;15.80;;;10.90;;
45236;SDS011;30973;51.442;3.580;2022-11-15T02:18:09;19.13;;;11.68;;
45236;SDS011;30973;51.442;3.580;2022-11-15T02:32:39;17.20;;;10.73;;
45236;SDS011;30973;51.442;3.580;2022-11-15T02:41:07;18.20;;;10.55;;
45236;SDS011;30973;51.442;3.580;2022-11-15T02:43:57;18.95;;;10.68;;
45236;SDS011;30973;51.442;3.580;2022-11-15T02:46:45;17.90;;;9.90;;
45236;SDS011;30973;51.442;3.580;2022-11-15T02:49:52;16.08;;;9.00;;
45236;SDS011;30973;51.442;3.580;2022-11-15T02:52:38;19.60;;;10.07;;
45236;SDS011;30973;51.442;3.580;2022-11-15T02:55:34;16.90;;;9.05;;
45236;SDS011;30973;51.442;3.580;2022-11-15T02:58:27;18.80;;;9.10;;
45236;SDS011;30973;51.442;3.580;2022-11-15T03:04:23;16.08;;;8.52;;
45236;SDS011;30973;51.442;3.580;2022-11-15T03:07:24;15.80;;;8.45;;
45236;SDS011;30973;51.442;3.580;2022-11-15T03:10:30;15.05;;;7.88;;
45236;SDS011;30973;51.442;3.580;2022-11-15T03:16:19;16.63;;;7.50;;
45236;SDS011;30973;51.442;3.580;2022-11-15T03:19:13;12.30;;;7.47;;
45236;SDS011;30973;51.442;3.580;2022-11-15T03:22:02;15.65;;;7.15;;
45236;SDS011;30973;51.442;3.580;2022-11-15T03:24:52;10.90;;;7.35;;
45236;SDS011;30973;51.442;3.580;2022-11-15T03:27:39;11.77;;;7.32;;
45236;SDS011;30973;51.442;3.580;2022-11-15T03:30:27;16.63;;;6.68;;
45236;SDS011;30973;51.442;3.580;2022-11-15T03:33:13;13.15;;;6.57;;
45236;SDS011;30973;51.442;3.580;2022-11-15T03:35:59;13.25;;;6.90;;
45236;SDS011;30973;51.442;3.580;2022-11-15T03:38:45;17.25;;;6.75;;
45236;SDS011;30973;51.442;3.580;2022-11-15T03:41:35;15.80;;;6.00;;
45236;SDS011;30973;51.442;3.580;2022-11-15T03:47:10;11.95;;;5.53;;
45236;SDS011;30973;51.442;3.580;2022-11-15T03:50:17;16.88;;;5.88;;
45236;SDS011;30973;51.442;3.580;2022-11-15T03:53:03;11.57;;;5.82;;
45236;SDS011;30973;51.442;3.580;2022-11-15T03:55:49;11.75;;;5.95;;
45236;SDS011;30973;51.442;3.580;2022-11-15T03:58:35;15.43;;;5.20;;
45236;SDS011;30973;51.442;3.580;2022-11-15T04:01:22;8.73;;;5.22;;
45236;SDS011;30973;51.442;3.580;2022-11-15T04:04:08;11.73;;;5.10;;
45236;SDS011;30973;51.442;3.580;2022-11-15T04:06:53;13.93;;;5.90;;
45236;SDS011;30973;51.442;3.580;2022-11-15T04:09:40;9.30;;;5.85;;
45236;SDS011;30973;51.442;3.580;2022-11-15T04:12:45;12.30;;;4.78;;
45236;SDS011;30973;51.442;3.580;2022-11-15T04:15:34;12.50;;;5.32;;
45236;SDS011;30973;51.442;3.580;2022-11-15T04:18:20;11.30;;;5.05;;
45236;SDS011;30973;51.442;3.580;2022-11-15T04:21:07;11.43;;;5.05;;
45236;SDS011;30973;51.442;3.580;2022-11-15T04:24:23;7.15;;;4.28;;
45236;SDS011;30973;51.442;3.580;2022-11-15T04:27:10;10.30;;;4.15;;
45236;SDS011;30973;51.442;3.580;2022-11-15T04:29:57;7.32;;;4.45;;
45236;SDS011;30973;51.442;3.580;2022-11-15T04:32:43;8.25;;;3.97;;
45236;SDS011;30973;51.442;3.580;2022-11-15T04:35:29;11.00;;;4.60;;
45236;SDS011;30973;51.442;3.580;2022-11-15T04:38:15;10.35;;;3.92;;
45236;SDS011;30973;51.442;3.580;2022-11-15T04:41:02;10.32;;;3.50;;
45236;SDS011;30973;51.442;3.580;2022-11-15T04:43:48;7.40;;;3.70;;
45236;SDS011;30973;51.442;3.580;2022-11-15T04:46:34;9.40;;;4.13;;
45236;SDS011;30973;51.442;3.580;2022-11-15T04:49:20;13.02;;;3.10;;
45236;SDS011;30973;51.442;3.580;2022-11-15T04:52:06;9.23;;;3.35;;
45236;SDS011;30973;51.442;3.580;2022-11-15T04:54:53;9.00;;;4.53;;
45236;SDS011;30973;51.442;3.580;2022-11-15T04:57:39;7.32;;;4.25;;
45236;SDS011;30973;51.442;3.580;2022-11-15T05:00:25;8.68;;;3.30;;
45236;SDS011;30973;51.442;3.580;2022-11-15T05:03:11;9.18;;;3.00;;
45236;SDS011;30973;51.442;3.580;2022-11-15T05:06:17;6.22;;;3.38;;
45236;SDS011;30973;51.442;3.580;2022-11-15T05:09:02;9.02;;;3.35;;
45236;SDS011;30973;51.442;3.580;2022-11-15T05:11:48;12.07;;;3.92;;
45236;SDS011;30973;51.442;3.580;2022-11-15T05:14:34;15.68;;;4.03;;
45236;SDS011;30973;51.442;3.580;2022-11-15T05:17:20;9.98;;;5.15;;
45236;SDS011;30973;51.442;3.580;2022-11-15T05:20:06;9.73;;;3.85;;
45236;SDS011;30973;51.442;3.580;2022-11-15T05:22:52;17.13;;;4.95;;
45236;SDS011;30973;51.442;3.580;2022-11-15T05:25:40;8.05;;;4.55;;
45236;SDS011;30973;51.442;3.580;2022-11-15T05:28:26;12.63;;;4.60;;
45236;SDS011;30973;51.442;3.580;2022-11-15T05:31:14;8.52;;;4.43;;
45236;SDS011;30973;51.442;3.580;2022-11-15T05:34:00;12.43;;;4.75;;
45236;SDS011;30973;51.442;3.580;2022-11-15T05:36:47;12.93;;;5.25;;
45236;SDS011;30973;51.442;3.580;2022-11-15T05:39:33;10.95;;;4.40;;
45236;SDS011;30973;51.442;3.580;2022-11-15T05:42:19;11.05;;;4.63;;
45236;SDS011;30973;51.442;3.580;2022-11-15T05:45:05;10.20;;;5.88;;
45236;SDS011;30973;51.442;3.580;2022-11-15T05:47:51;11.43;;;6.10;;
45236;SDS011;30973;51.442;3.580;2022-11-15T05:50:38;12.85;;;5.00;;
45236;SDS011;30973;51.442;3.580;2022-11-15T05:53:25;8.10;;;5.03;;
45236;SDS011;30973;51.442;3.580;2022-11-15T05:56:11;9.35;;;4.57;;
45236;SDS011;30973;51.442;3.580;2022-11-15T05:58:57;9.38;;;4.32;;
45236;SDS011;30973;51.442;3.580;2022-11-15T06:01:44;11.32;;;5.10;;
45236;SDS011;30973;51.442;3.580;2022-11-15T06:04:30;12.52;;;4.90;;
45236;SDS011;30973;51.442;3.580;2022-11-15T06:07:16;10.43;;;4.20;;
45236;SDS011;30973;51.442;3.580;2022-11-15T06:10:02;10.18;;;5.20;;
45236;SDS011;30973;51.442;3.580;2022-11-15T06:12:55;12.35;;;4.78;;
45236;SDS011;30973;51.442;3.580;2022-11-15T06:15:42;8.80;;;3.70;;
45236;SDS011;30973;51.442;3.580;2022-11-15T06:18:31;10.32;;;4.18;;
45236;SDS011;30973;51.442;3.580;2022-11-15T06:21:17;9.88;;;4.55;;
45236;SDS011;30973;51.442;3.580;2022-11-15T06:24:04;6.03;;;4.15;;
45236;SDS011;30973;51.442;3.580;2022-11-15T06:26:50;6.57;;;4.07;;
45236;SDS011;30973;51.442;3.580;2022-11-15T06:29:36;8.27;;;3.90;;
45236;SDS011;30973;51.442;3.580;2022-11-15T06:32:22;7.43;;;3.60;;
45236;SDS011;30973;51.442;3.580;2022-11-15T06:35:08;6.60;;;3.47;;
45236;SDS011;30973;51.442;3.580;2022-11-15T06:37:53;14.25;;;4.40;;
45236;SDS011;30973;51.442;3.580;2022-11-15T06:40:40;9.35;;;3.35;;
45236;SDS011;30973;51.442;3.580;2022-11-15T06:43:25;7.43;;;3.60;;
45236;SDS011;30973;51.442;3.580;2022-11-15T06:46:12;9.45;;;3.15;;
45236;SDS011;30973;51.442;3.580;2022-11-15T06:48:58;7.70;;;3.10;;
45236;SDS011;30973;51.442;3.580;2022-11-15T06:51:50;7.32;;;3.40;;
45236;SDS011;30973;51.442;3.580;2022-11-15T06:54:36;7.40;;;3.65;;
45236;SDS011;30973;51.442;3.580;2022-11-15T06:57:21;9.48;;;4.50;;
45236;SDS011;30973;51.442;3.580;2022-11-15T07:00:08;10.85;;;5.25;;
45236;SDS011;30973;51.442;3.580;2022-11-15T07:02:54;9.07;;;5.20;;
45236;SDS011;30973;51.442;3.580;2022-11-15T07:05:40;9.55;;;5.82;;
45236;SDS011;30973;51.442;3.580;2022-11-15T07:08:27;11.65;;;5.50;;
45236;SDS011;30973;51.442;3.580;2022-11-15T07:11:13;9.45;;;5.50;;
45236;SDS011;30973;51.442;3.580;2022-11-15T07:13:59;12.90;;;6.00;;
45236;SDS011;30973;51.442;3.580;2022-11-15T07:16:46;10.40;;;6.55;;
45236;SDS011;30973;51.442;3.580;2022-11-15T07:19:32;10.02;;;5.55;;
45236;SDS011;30973;51.442;3.580;2022-11-15T07:22:18;11.52;;;5.85;;
45236;SDS011;30973;51.442;3.580;2022-11-15T07:25:04;9.07;;;5.72;;
45236;SDS011;30973;51.442;3.580;2022-11-15T07:27:56;13.20;;;6.13;;
45236;SDS011;30973;51.442;3.580;2022-11-15T07:30:43;10.75;;;6.18;;
45236;SDS011;30973;51.442;3.580;2022-11-15T07:33:29;8.20;;;5.38;;
45236;SDS011;30973;51.442;3.580;2022-11-15T07:36:15;14.82;;;5.82;;
45236;SDS011;30973;51.442;3.580;2022-11-15T07:39:01;8.55;;;5.40;;
45236;SDS011;30973;51.442;3.580;2022-11-15T07:41:47;9.80;;;5.60;;
45236;SDS011;30973;51.442;3.580;2022-11-15T07:44:34;9.98;;;5.22;;
45236;SDS011;30973;51.442;3.580;2022-11-15T07:47:20;9.77;;;5.05;;
45236;SDS011;30973;51.442;3.580;2022-11-15T07:50:06;9.95;;;5.53;;
45236;SDS011;30973;51.442;3.580;2022-11-15T07:52:53;9.15;;;5.43;;
45236;SDS011;30973;51.442;3.580;2022-11-15T07:55:40;12.30;;;5.40;;
45236;SDS011;30973;51.442;3.580;2022-11-15T07:58:26;10.00;;;4.68;;
45236;SDS011;30973;51.442;3.580;2022-11-15T08:01:12;7.72;;;4.63;;
45236;SDS011;30973;51.442;3.580;2022-11-15T08:03:58;7.32;;;4.45;;
45236;SDS011;30973;51.442;3.580;2022-11-15T08:06:45;10.70;;;4.90;;
45236;SDS011;30973;51.442;3.580;2022-11-15T08:09:31;9.02;;;4.93;;
45236;SDS011;30973;51.442;3.580;2022-11-15T08:12:17;8.05;;;4.40;;
45236;SDS011;30973;51.442;3.580;2022-11-15T08:15:03;9.15;;;4.28;;
45236;SDS011;30973;51.442;3.580;2022-11-15T08:17:59;6.50;;;4.03;;
45236;SDS011;30973;51.442;3.580;2022-11-15T08:20:45;6.88;;;4.57;;
45236;SDS011;30973;51.442;3.580;2022-11-15T08:23:31;8.82;;;3.72;;
45236;SDS011;30973;51.442;3.580;2022-11-15T08:26:17;9.25;;;3.67;;
45236;SDS011;30973;51.442;3.580;2022-11-15T08:29:03;6.97;;;4.00;;
45236;SDS011;30973;51.442;3.580;2022-11-15T08:31:49;9.15;;;4.07;;
45236;SDS011;30973;51.442;3.580;2022-11-15T08:34:35;6.32;;;4.20;;
45236;SDS011;30973;51.442;3.580;2022-11-15T08:37:21;7.30;;;3.70;;
45236;SDS011;30973;51.442;3.580;2022-11-15T08:40:07;7.93;;;3.95;;
45236;SDS011;30973;51.442;3.580;2022-11-15T08:42:54;8.32;;;3.58;;
45236;SDS011;30973;51.442;3.580;2022-11-15T08:45:39;6.15;;;3.35;;
45236;SDS011;30973;51.442;3.580;2022-11-15T08:48:25;10.82;;;4.13;;
45236;SDS011;30973;51.442;3.580;2022-11-15T08:51:11;10.18;;;3.42;;
45236;SDS011;30973;51.442;3.580;2022-11-15T08:53:57;8.55;;;3.60;;
45236;SDS011;30973;51.442;3.580;2022-11-15T08:56:43;21.75;;;5.18;;
45236;SDS011;30973;51.442;3.580;2022-11-15T08:59:29;8.65;;;3.53;;
45236;SDS011;30973;51.442;3.580;2022-11-15T09:02:15;7.97;;;2.88;;
45236;SDS011;30973;51.442;3.580;2022-11-15T09:05:01;8.52;;;3.53;;
45236;SDS011;30973;51.442;3.580;2022-11-15T09:07:47;9.48;;;3.35;;
45236;SDS011;30973;51.442;3.580;2022-11-15T09:10:33;6.88;;;3.30;;
45236;SDS011;30973;51.442;3.580;2022-11-15T09:13:19;7.00;;;3.10;;
45236;SDS011;30973;51.442;3.580;2022-11-15T09:16:05;7.07;;;2.95;;
45236;SDS011;30973;51.442;3.580;2022-11-15T09:18:52;6.95;;;2.70;;
45236;SDS011;30973;51.442;3.580;2022-11-15T09:21:38;6.15;;;2.70;;
45236;SDS011;30973;51.442;3.580;2022-11-15T09:24:24;7.00;;;2.85;;
45236;SDS011;30973;51.442;3.580;2022-11-15T09:27:10;6.90;;;2.63;;
45236;SDS011;30973;51.442;3.580;2022-11-15T09:29:56;9.63;;;2.63;;
45236;SDS011;30973;51.442;3.580;2022-11-15T09:32:42;7.45;;;2.97;;
45236;SDS011;30973;51.442;3.580;2022-11-15T09:35:28;8.90;;;2.58;;
45236;SDS011;30973;51.442;3.580;2022-11-15T09:38:14;9.95;;;2.72;;
45236;SDS011;30973;51.442;3.580;2022-11-15T09:44:03;12.70;;;2.72;;
45236;SDS011;30973;51.442;3.580;2022-11-15T09:50:00;5.63;;;2.65;;
45236;SDS011;30973;51.442;3.580;2022-11-15T09:52:32;7.25;;;2.47;;
45236;SDS011;30973;51.442;3.580;2022-11-15T09:55:00;6.22;;;2.15;;
45236;SDS011;30973;51.442;3.580;2022-11-15T10:00:17;7.82;;;1.90;;
45236;SDS011;30973;51.442;3.580;2022-11-15T10:05:51;8.05;;;2.08;;
45236;SDS011;30973;51.442;3.580;2022-11-15T10:11:01;6.03;;;2.00;;
45236;SDS011;30973;51.442;3.580;2022-11-15T10:13:50;8.50;;;2.20;;
45236;SDS011;30973;51.442;3.580;2022-11-15T10:24:05;6.70;;;1.60;;
45236;SDS011;30973;51.442;3.580;2022-11-15T10:26:34;6.00;;;1.77;;
45236;SDS011;30973;51.442;3.580;2022-11-15T10:29:03;11.88;;;3.60;;
45236;SDS011;30973;51.442;3.580;2022-11-15T10:31:31;8.60;;;1.85;;
45236;SDS011;30973;51.442;3.580;2022-11-15T10:34:17;5.60;;;1.70;;
45236;SDS011;30973;51.442;3.580;2022-11-15T10:36:46;4.65;;;1.85;;
45236;SDS011;30973;51.442;3.580;2022-11-15T10:39:15;5.78;;;1.90;;
45236;SDS011;30973;51.442;3.580;2022-11-15T10:41:43;8.40;;;1.67;;
45236;SDS011;30973;51.442;3.580;2022-11-15T10:46:39;7.07;;;1.92;;
45236;SDS011;30973;51.442;3.580;2022-11-15T10:49:29;9.70;;;2.63;;
45236;SDS011;30973;51.442;3.580;2022-11-15T10:52:02;16.80;;;2.70;;
45236;SDS011;30973;51.442;3.580;2022-11-15T10:54:32;6.50;;;1.83;;
45236;SDS011;30973;51.442;3.580;2022-11-15T10:57:04;10.43;;;1.70;;
45236;SDS011;30973;51.442;3.580;2022-11-15T10:59:32;3.95;;;1.17;;
45236;SDS011;30973;51.442;3.580;2022-11-15T11:04:51;9.13;;;1.98;;
45236;SDS011;30973;51.442;3.580;2022-11-15T11:07:25;9.73;;;2.03;;
45236;SDS011;30973;51.442;3.580;2022-11-15T11:12:20;10.05;;;1.95;;
45236;SDS011;30973;51.442;3.580;2022-11-15T11:14:53;7.28;;;1.50;;
45236;SDS011;30973;51.442;3.580;2022-11-15T11:17:30;7.28;;;2.15;;
45236;SDS011;30973;51.442;3.580;2022-11-15T11:28:25;5.30;;;1.60;;
45236;SDS011;30973;51.442;3.580;2022-11-15T11:33:44;8.27;;;2.00;;
45236;SDS011;30973;51.442;3.580;2022-11-15T11:38:44;3.85;;;1.60;;
45236;SDS011;30973;51.442;3.580;2022-11-15T11:49:08;5.80;;;1.52;;
45236;SDS011;30973;51.442;3.580;2022-11-15T11:54:05;8.18;;;1.90;;
45236;SDS011;30973;51.442;3.580;2022-11-15T11:56:37;8.70;;;1.55;;
45236;SDS011;30973;51.442;3.580;2022-11-15T11:59:12;7.82;;;1.85;;
45236;SDS011;30973;51.442;3.580;2022-11-15T12:01:41;8.18;;;1.70;;
45236;SDS011;30973;51.442;3.580;2022-11-15T12:04:12;7.65;;;2.10;;
45236;SDS011;30973;51.442;3.580;2022-11-15T12:06:58;7.47;;;1.80;;
45236;SDS011;30973;51.442;3.580;2022-11-15T12:09:41;6.85;;;1.75;;
45236;SDS011;30973;51.442;3.580;2022-11-15T12:12:17;6.55;;;2.63;;
45236;SDS011;30973;51.442;3.580;2022-11-15T12:14:47;3.83;;;1.05;;
45236;SDS011;30973;51.442;3.580;2022-11-15T12:17:17;5.35;;;2.00;;
45236;SDS011;30973;51.442;3.580;2022-11-15T12:19:46;6.55;;;1.67;;
45236;SDS011;30973;51.442;3.580;2022-11-15T12:23:01;7.63;;;1.70;;
45236;SDS011;30973;51.442;3.580;2022-11-15T12:25:12;7.50;;;2.60;;
45236;SDS011;30973;51.442;3.580;2022-11-15T12:27:42;5.50;;;1.63;;
45236;SDS011;30973;51.442;3.580;2022-11-15T12:30:13;4.70;;;1.33;;
45236;SDS011;30973;51.442;3.580;2022-11-15T12:33:00;5.53;;;1.30;;
45236;SDS011;30973;51.442;3.580;2022-11-15T12:35:36;5.93;;;1.52;;
45236;SDS011;30973;51.442;3.580;2022-11-15T12:38:04;6.35;;;1.75;;
45236;SDS011;30973;51.442;3.580;2022-11-15T12:40:33;6.05;;;1.88;;
45236;SDS011;30973;51.442;3.580;2022-11-15T12:45:44;4.00;;;1.80;;
45236;SDS011;30973;51.442;3.580;2022-11-15T13:06:48;7.13;;;1.88;;
45236;SDS011;30973;51.442;3.580;2022-11-15T13:11:57;6.93;;;1.63;;
45236;SDS011;30973;51.442;3.580;2022-11-15T13:19:53;7.25;;;1.60;;
45236;SDS011;30973;51.442;3.580;2022-11-15T13:22:22;6.33;;;1.90;;
45236;SDS011;30973;51.442;3.580;2022-11-15T13:28:03;6.97;;;2.80;;
45236;SDS011;30973;51.442;3.580;2022-11-15T13:30:37;9.05;;;2.60;;
45236;SDS011;30973;51.442;3.580;2022-11-15T13:33:08;7.45;;;2.15;;
45236;SDS011;30973;51.442;3.580;2022-11-15T13:35:38;7.18;;;2.08;;
45236;SDS011;30973;51.442;3.580;2022-11-15T13:38:11;7.03;;;1.70;;
45236;SDS011;30973;51.442;3.580;2022-11-15T13:40:46;8.48;;;2.17;;
45236;SDS011;30973;51.442;3.580;2022-11-15T13:43:16;3.92;;;1.52;;
45236;SDS011;30973;51.442;3.580;2022-11-15T13:45:44;4.60;;;1.65;;
45236;SDS011;30973;51.442;3.580;2022-11-15T13:48:11;6.15;;;1.80;;
45236;SDS011;30973;51.442;3.580;2022-11-15T13:50:39;6.90;;;1.80;;
45236;SDS011;30973;51.442;3.580;2022-11-15T13:53:06;8.63;;;2.20;;
45236;SDS011;30973;51.442;3.580;2022-11-15T13:55:36;6.03;;;1.90;;
45236;SDS011;30973;51.442;3.580;2022-11-15T13:58:03;6.05;;;1.60;;
45236;SDS011;30973;51.442;3.580;2022-11-15T14:00:39;7.45;;;1.75;;
45236;SDS011;30973;51.442;3.580;2022-11-15T14:03:23;7.63;;;1.80;;
45236;SDS011;30973;51.442;3.580;2022-11-15T14:08:28;4.43;;;2.10;;
45236;SDS011;30973;51.442;3.580;2022-11-15T14:13:42;5.68;;;1.98;;
45236;SDS011;30973;51.442;3.580;2022-11-15T14:16:13;4.63;;;1.65;;
45236;SDS011;30973;51.442;3.580;2022-11-15T14:18:43;5.63;;;1.60;;
45236;SDS011;30973;51.442;3.580;2022-11-15T14:21:11;5.50;;;1.60;;
45236;SDS011;30973;51.442;3.580;2022-11-15T14:23:38;5.00;;;1.40;;
45236;SDS011;30973;51.442;3.580;2022-11-15T14:26:10;6.63;;;1.77;;
45236;SDS011;30973;51.442;3.580;2022-11-15T14:28:38;4.03;;;1.80;;
45236;SDS011;30973;51.442;3.580;2022-11-15T14:31:09;6.07;;;1.98;;
45236;SDS011;30973;51.442;3.580;2022-11-15T14:33:38;7.00;;;2.03;;
45236;SDS011;30973;51.442;3.580;2022-11-15T14:36:10;5.95;;;1.90;;
45236;SDS011;30973;51.442;3.580;2022-11-15T14:38:38;4.30;;;1.80;;
45236;SDS011;30973;51.442;3.580;2022-11-15T14:41:05;4.22;;;1.63;;
45236;SDS011;30973;51.442;3.580;2022-11-15T14:43:33;5.85;;;2.03;;
45236;SDS011;30973;51.442;3.580;2022-11-15T14:46:00;4.82;;;1.75;;
45236;SDS011;30973;51.442;3.580;2022-11-15T14:48:27;5.03;;;2.08;;
45236;SDS011;30973;51.442;3.580;2022-11-15T14:50:56;8.25;;;2.67;;
45236;SDS011;30973;51.442;3.580;2022-11-15T14:53:23;7.75;;;2.15;;
45236;SDS011;30973;51.442;3.580;2022-11-15T14:55:50;6.85;;;1.90;;
45236;SDS011;30973;51.442;3.580;2022-11-15T14:58:18;9.13;;;2.58;;
45236;SDS011;30973;51.442;3.580;2022-11-15T15:00:45;5.00;;;1.83;;
45236;SDS011;30973;51.442;3.580;2022-11-15T15:03:13;7.93;;;1.90;;
45236;SDS011;30973;51.442;3.580;2022-11-15T15:05:41;8.25;;;3.60;;
45236;SDS011;30973;51.442;3.580;2022-11-15T15:08:09;6.47;;;2.85;;
45236;SDS011;30973;51.442;3.580;2022-11-15T15:10:38;8.43;;;2.42;;
45236;SDS011;30973;51.442;3.580;2022-11-15T15:13:15;4.93;;;2.03;;
45236;SDS011;30973;51.442;3.580;2022-11-15T15:15:43;3.97;;;1.65;;
45236;SDS011;30973;51.442;3.580;2022-11-15T15:18:10;5.63;;;1.77;;
45236;SDS011;30973;51.442;3.580;2022-11-15T15:20:38;8.75;;;2.45;;
45236;SDS011;30973;51.442;3.580;2022-11-15T15:23:09;4.78;;;1.85;;
45236;SDS011;30973;51.442;3.580;2022-11-15T15:25:40;5.63;;;2.03;;
45236;SDS011;30973;51.442;3.580;2022-11-15T15:28:08;6.82;;;2.90;;
45236;SDS011;30973;51.442;3.580;2022-11-15T15:30:35;4.22;;;1.90;;
45236;SDS011;30973;51.442;3.580;2022-11-15T15:33:03;5.07;;;1.83;;
45236;SDS011;30973;51.442;3.580;2022-11-15T15:35:32;5.53;;;2.03;;
45236;SDS011;30973;51.442;3.580;2022-11-15T15:37:59;7.07;;;1.92;;
45236;SDS011;30973;51.442;3.580;2022-11-15T15:40:28;6.47;;;2.25;;
45236;SDS011;30973;51.442;3.580;2022-11-15T15:42:55;3.92;;;2.50;;
45236;SDS011;30973;51.442;3.580;2022-11-15T15:45:24;6.25;;;2.00;;
45236;SDS011;30973;51.442;3.580;2022-11-15T15:47:52;4.13;;;2.10;;
45236;SDS011;30973;51.442;3.580;2022-11-15T15:50:26;6.85;;;2.70;;
45236;SDS011;30973;51.442;3.580;2022-11-15T15:52:55;7.60;;;2.20;;
45236;SDS011;30973;51.442;3.580;2022-11-15T15:55:23;5.45;;;2.80;;
45236;SDS011;30973;51.442;3.580;2022-11-15T15:57:50;5.07;;;2.47;;
45236;SDS011;30973;51.442;3.580;2022-11-15T16:00:18;8.68;;;4.07;;
45236;SDS011;30973;51.442;3.580;2022-11-15T16:02:45;8.90;;;4.35;;
45236;SDS011;30973;51.442;3.580;2022-11-15T16:05:13;14.27;;;5.25;;
45236;SDS011;30973;51.442;3.580;2022-11-15T16:07:40;5.93;;;3.40;;
45236;SDS011;30973;51.442;3.580;2022-11-15T16:10:33;6.75;;;3.22;;
45236;SDS011;30973;51.442;3.580;2022-11-15T16:12:57;6.95;;;3.38;;
45236;SDS011;30973;51.442;3.580;2022-11-15T16:15:25;5.35;;;3.72;;
45236;SDS011;30973;51.442;3.580;2022-11-15T16:17:54;7.50;;;4.15;;
45236;SDS011;30973;51.442;3.580;2022-11-15T16:20:24;7.82;;;3.30;;
45236;SDS011;30973;51.442;3.580;2022-11-15T16:22:55;6.65;;;3.65;;
45236;SDS011;30973;51.442;3.580;2022-11-15T16:25:22;9.23;;;3.45;;
45236;SDS011;30973;51.442;3.580;2022-11-15T16:27:50;9.80;;;3.67;;
45236;SDS011;30973;51.442;3.580;2022-11-15T16:30:19;6.05;;;2.90;;
45236;SDS011;30973;51.442;3.580;2022-11-15T16:32:47;6.45;;;3.45;;
45236;SDS011;30973;51.442;3.580;2022-11-15T16:35:15;8.70;;;3.22;;
45236;SDS011;30973;51.442;3.580;2022-11-15T16:37:42;9.90;;;3.40;;
45236;SDS011;30973;51.442;3.580;2022-11-15T16:40:28;7.60;;;3.13;;
45236;SDS011;30973;51.442;3.580;2022-11-15T16:42:57;6.68;;;4.03;;
45236;SDS011;30973;51.442;3.580;2022-11-15T16:45:25;8.05;;;3.50;;
45236;SDS011;30973;51.442;3.580;2022-11-15T16:47:55;8.27;;;4.38;;
45236;SDS011;30973;51.442;3.580;2022-11-15T16:50:24;7.05;;;3.90;;
45236;SDS011;30973;51.442;3.580;2022-11-15T16:52:52;4.57;;;3.20;;
45236;SDS011;30973;51.442;3.580;2022-11-15T16:55:20;5.43;;;3.38;;
45236;SDS011;30973;51.442;3.580;2022-11-15T16:57:47;7.15;;;4.45;;
45236;SDS011;30973;51.442;3.580;2022-11-15T17:00:16;7.82;;;5.22;;
45236;SDS011;30973;51.442;3.580;2022-11-15T17:02:44;9.80;;;5.95;;
45236;SDS011;30973;51.442;3.580;2022-11-15T17:05:11;5.00;;;3.35;;
45236;SDS011;30973;51.442;3.580;2022-11-15T17:07:49;6.88;;;3.55;;
45236;SDS011;30973;51.442;3.580;2022-11-15T17:10:23;5.50;;;4.30;;
45236;SDS011;30973;51.442;3.580;2022-11-15T17:12:51;5.68;;;3.90;;
45236;SDS011;30973;51.442;3.580;2022-11-15T17:15:18;6.95;;;4.15;;
45236;SDS011;30973;51.442;3.580;2022-11-15T17:17:50;5.88;;;3.22;;
45236;SDS011;30973;51.442;3.580;2022-11-15T17:20:18;6.65;;;4.18;;
45236;SDS011;30973;51.442;3.580;2022-11-15T17:22:45;6.70;;;4.07;;
45236;SDS011;30973;51.442;3.580;2022-11-15T17:25:13;7.22;;;3.80;;
45236;SDS011;30973;51.442;3.580;2022-11-15T17:27:40;8.07;;;4.10;;
45236;SDS011;30973;51.442;3.580;2022-11-15T17:30:09;5.40;;;3.72;;
45236;SDS011;30973;51.442;3.580;2022-11-15T17:32:37;4.70;;;3.75;;
45236;SDS011;30973;51.442;3.580;2022-11-15T17:35:04;4.60;;;3.60;;
45236;SDS011;30973;51.442;3.580;2022-11-15T17:37:39;5.57;;;3.40;;
45236;SDS011;30973;51.442;3.580;2022-11-15T17:40:06;10.18;;;5.03;;
45236;SDS011;30973;51.442;3.580;2022-11-15T17:42:34;8.88;;;5.70;;
45236;SDS011;30973;51.442;3.580;2022-11-15T17:45:01;9.43;;;5.20;;
45236;SDS011;30973;51.442;3.580;2022-11-15T17:47:35;6.50;;;5.35;;
45236;SDS011;30973;51.442;3.580;2022-11-15T17:50:03;5.40;;;3.40;;
45236;SDS011;30973;51.442;3.580;2022-11-15T17:52:31;5.45;;;3.50;;
45236;SDS011;30973;51.442;3.580;2022-11-15T17:54:58;5.07;;;3.10;;
45236;SDS011;30973;51.442;3.580;2022-11-15T17:57:25;5.55;;;3.60;;